Hlavní strana
METAR-TAF:

METAR-TAF

Letiště :

Taškent, Uzbekistán

Letiště Taškent

zeměpisná šířka: 41-16N, zeměpisná délka: 069-16E, výška: 489 m

Aktuální stav počasí

Zpráva byla vytvořena před 52 minutami, v 06:30 UTC
Východoseverovýchodní vítr 6 kt
Teplota 16°C
Vlhkost vzduchu 21%
Tlak 1019 hPa
Viditelnost 10 km a více
Žádná oblačnost pod 1500 m, nevyskytují se cumulonimby.

METAR: UTTT 200630Z 06006KT CAVOK 16/M06 Q1019 R08R/CLRD70 NOSIG

Čas: 12:22 (07:22 UTC)

Předpověď počasí

Zpráva byla vytvořena před 2 hodinami a 22 minutami, v 05:00 UTC
Předpověď platná od 20 v 06 UTC do 21 v 06 UTC
Jihozápadní vítr 12 kt
Viditelnost: 7000 m

TAF: UTTT 200500Z 2006/2106 22012KT 7000 NSC

Stav a předpovědi počasí z více než 4 000 letišť (zprávy METAR a TAF).

Červené a žluté tečky na mapě představují dostupné meteorologické stanice.

Když kurzor umístíte na tečku, zobrazí se název stanice.

Pak kliknutím zobrazíte stav a předpověď počasí.

Chcete-li změnit mapu, kliknutím na zelené tlačítko se znaménkem +mapu přiblížíte, kliknutím na zelené tlačítko se znaménkem – mapu oddálíte a kliknutím na zelené šipky přejdete na sousední mapy.


METAR-TAF: